Time;durP1;ratioP1;P1;durP2;ratioP2;P2;SDS_P1;SDS_P2;PMS_P1;PMS_P2;Temp;Humidity;BMP_temperature;BMP_pressure;BME280_temperature;BME280_humidity;BME280_pressure;Samples;Min_cycle;Max_cycle;Signal;HPM_P1;HPM_P2
2022/10/19 00:00:47;;;;;;;19.67;8.10;;;;;;;;;;5006855;28;20022;-45
2022/10/19 00:03:12;;;;;;;23.38;8.57;;;;;;;;;;5006761;28;20025;-43
2022/10/19 00:05:37;;;;;;;21.30;8.85;;;;;;;;;;5006621;28;20125;-45
2022/10/19 00:08:03;;;;;;;28.88;9.77;;;;;;;;;;5007900;28;20403;-44
2022/10/19 00:10:28;;;;;;;21.98;8.85;;;;;;;;;;5007739;28;20087;-45
2022/10/19 00:12:54;;;;;;;22.70;9.00;;;;;;;;;;5004795;28;20030;-46
2022/10/19 00:15:19;;;;;;;20.98;8.88;;;;;;;;;;5005657;28;20049;-44
2022/10/19 00:17:45;;;;;;;33.83;10.43;;;;;;;;;;5008083;28;20030;-44
2022/10/19 00:20:10;;;;;;;24.92;10.38;;;;;;;;;;5008152;28;20821;-43
2022/10/19 00:22:36;;;;;;;18.33;9.48;;;;;;;;;;5008793;28;20048;-43
2022/10/19 00:25:02;;;;;;;25.60;10.52;;;;;;;;;;5005297;28;20125;-44
2022/10/19 00:27:27;;;;;;;22.50;9.77;;;;;;;;;;5011508;28;20061;-44
2022/10/19 00:29:53;;;;;;;18.50;10.88;;;;;;;;;;5010091;28;20074;-45
2022/10/19 00:32:18;;;;;;;21.05;10.55;;;;;;;;;;5009009;28;20034;-44
2022/10/19 00:34:43;;;;;;;22.30;11.05;;;;;;;;;;5010140;28;20041;-43
2022/10/19 00:37:09;;;;;;;21.17;12.05;;;;;;;;;;5011465;28;20076;-44
2022/10/19 00:39:34;;;;;;;20.15;10.50;;;;;;;;;;5011185;28;20491;-43
2022/10/19 00:41:59;;;;;;;20.52;11.63;;;;;;;;;;5011258;28;20030;-43
2022/10/19 00:44:28;;;;;;;22.23;12.52;;;;;;;;;;5010786;28;20183;-43
2022/10/19 00:46:57;;;;;;;20.85;11.43;;;;;;;;;;5008506;28;20046;-44
2022/10/19 00:49:30;;;;;;;17.35;11.95;;;;;;;;;;5009455;28;20042;-44
2022/10/19 00:51:57;;;;;;;;;;;;;;;;;;5011849;28;20095;-43
2022/10/19 00:54:23;;;;;;;17.02;12.23;;;;;;;;;;5011661;28;19926;-45
2022/10/19 00:56:52;;;;;;;19.58;12.30;;;;;;;;;;5009916;28;20164;-44
2022/10/19 00:59:23;;;;;;;22.30;13.70;;;;;;;;;;5009986;28;20049;-45
2022/10/19 01:01:50;;;;;;;20.73;13.85;;;;;;;;;;5009007;28;20520;-46
2022/10/19 01:04:18;;;;;;;20.38;13.43;;;;;;;;;;5008809;28;20046;-44
2022/10/19 01:06:44;;;;;;;17.17;13.32;;;;;;;;;;5011466;28;20022;-43
2022/10/19 01:09:09;;;;;;;19.45;13.75;;;;;;;;;;5010650;28;20050;-44
2022/10/19 01:12:02;;;;;;;19.27;13.30;;;;;;;;;;5011177;28;20471;-45
2022/10/19 01:14:46;;;;;;;26.88;13.65;;;;;;;;;;5009949;28;20091;-44
2022/10/19 01:17:20;;;;;;;19.10;13.77;;;;;;;;;;5008121;28;20519;-45
2022/10/19 01:20:04;;;;;;;20.33;13.02;;;;;;;;;;5007035;28;20471;-46
2022/10/19 01:22:48;;;;;;;23.27;14.40;;;;;;;;;;5006439;28;20035;-44
2022/10/19 01:25:56;;;;;;;21.90;13.20;;;;;;;;;;5010994;28;20127;-43
2022/10/19 01:29:01;;;;;;;18.52;13.88;;;;;;;;;;4967575;28;20047;-45
2022/10/19 01:31:56;;;;;;;19.70;13.50;;;;;;;;;;4971218;28;20491;-44
2022/10/19 01:34:28;;;;;;;22.92;13.88;;;;;;;;;;4967012;28;20054;-44
2022/10/19 01:37:09;;;;;;;28.25;13.75;;;;;;;;;;4966571;28;20042;-44
2022/10/19 01:39:46;;;;;;;26.80;13.73;;;;;;;;;;4966256;28;20066;-46
2022/10/19 01:42:11;;;;;;;24.75;13.43;;;;;;;;;;4968612;28;20110;-45
2022/10/19 01:44:46;;;;;;;21.15;13.73;;;;;;;;;;4967788;28;20556;-43
2022/10/19 01:47:29;;;;;;;23.73;13.80;;;;;;;;;;4969318;28;20502;-44
2022/10/19 01:49:59;;;;;;;30.95;13.80;;;;;;;;;;4965799;28;20054;-43
2022/10/19 01:52:26;;;;;;;27.33;14.00;;;;;;;;;;4967797;28;20510;-46
2022/10/19 01:54:55;;;;;;;22.65;13.32;;;;;;;;;;4966046;28;20194;-44
2022/10/19 01:57:25;;;;;;;24.00;14.70;;;;;;;;;;4966115;28;20113;-44
2022/10/19 01:59:52;;;;;;;22.80;14.00;;;;;;;;;;4967257;28;20046;-44
2022/10/19 02:02:20;;;;;;;29.98;12.95;;;;;;;;;;4967362;28;20054;-43
2022/10/19 02:04:49;;;;;;;21.25;14.05;;;;;;;;;;4977196;28;20522;-43
2022/10/19 02:07:16;;;;;;;25.70;14.77;;;;;;;;;;5009997;28;20026;-45
2022/10/19 02:09:41;;;;;;;31.48;13.52;;;;;;;;;;5007581;28;20081;-44
2022/10/19 02:12:10;;;;;;;28.55;14.98;;;;;;;;;;5008515;28;20530;-47
2022/10/19 02:14:50;;;;;;;21.67;14.20;;;;;;;;;;5006604;28;20049;-46
2022/10/19 02:17:22;;;;;;;30.95;13.88;;;;;;;;;;5011020;28;20517;-43
2022/10/19 02:19:48;;;;;;;26.23;14.25;;;;;;;;;;5008795;28;20077;-44
2022/10/19 02:22:13;;;;;;;33.55;14.25;;;;;;;;;;5009789;28;20053;-44
2022/10/19 02:24:39;;;;;;;26.45;15.48;;;;;;;;;;5008080;28;20041;-43
2022/10/19 02:27:06;;;;;;;52.75;15.50;;;;;;;;;;5007011;28;20096;-43
2022/10/19 02:29:33;;;;;;;29.13;15.45;;;;;;;;;;5008786;28;20037;-44
2022/10/19 02:31:59;;;;;;;29.50;15.40;;;;;;;;;;5007797;28;20033;-43
2022/10/19 02:34:26;;;;;;;42.20;14.45;;;;;;;;;;5009464;28;20069;-44
2022/10/19 02:36:51;;;;;;;23.13;15.13;;;;;;;;;;5009349;28;20045;-47
2022/10/19 02:39:17;;;;;;;36.50;15.20;;;;;;;;;;5009346;28;20073;-43
2022/10/19 02:41:57;;;;;;;35.20;14.68;;;;;;;;;;5008788;28;20057;-43
2022/10/19 02:44:31;;;;;;;32.63;14.48;;;;;;;;;;5005303;28;20046;-44
2022/10/19 02:47:05;;;;;;;24.50;14.63;;;;;;;;;;5009243;28;20475;-45
2022/10/19 02:49:34;;;;;;;56.88;15.68;;;;;;;;;;5007953;28;20045;-46
2022/10/19 02:52:02;;;;;;;24.02;15.70;;;;;;;;;;5007902;28;20037;-45
2022/10/19 02:54:28;;;;;;;38.28;14.55;;;;;;;;;;5007590;28;20406;-43
2022/10/19 02:56:54;;;;;;;28.33;14.77;;;;;;;;;;5007704;28;20034;-47
2022/10/19 02:59:19;;;;;;;35.90;15.02;;;;;;;;;;5005805;28;20477;-43
2022/10/19 03:01:45;;;;;;;18.23;14.60;;;;;;;;;;5006895;28;20060;-43
2022/10/19 03:04:10;;;;;;;39.42;14.75;;;;;;;;;;5006544;28;20034;-44
2022/10/19 03:06:36;;;;;;;33.15;16.00;;;;;;;;;;5008502;28;20033;-43
2022/10/19 03:09:01;;;;;;;42.95;15.48;;;;;;;;;;5007126;28;20058;-43
2022/10/19 03:11:26;;;;;;;46.25;16.00;;;;;;;;;;5006098;28;20034;-48
2022/10/19 03:13:52;;;;;;;30.10;16.25;;;;;;;;;;5007728;28;20096;-45
2022/10/19 03:16:17;;;;;;;49.35;17.08;;;;;;;;;;5007699;28;20025;-46
2022/10/19 03:18:43;;;;;;;31.95;16.02;;;;;;;;;;5008091;28;20034;-44
2022/10/19 03:21:11;;;;;;;58.65;16.92;;;;;;;;;;5008470;28;20034;-43
2022/10/19 03:23:38;;;;;;;31.58;16.88;;;;;;;;;;5008362;28;20498;-44
2022/10/19 03:26:04;;;;;;;28.77;16.88;;;;;;;;;;5008891;28;20032;-44
2022/10/19 03:28:30;;;;;;;41.75;17.38;;;;;;;;;;5008641;28;20371;-45
2022/10/19 03:30:56;;;;;;;30.58;17.60;;;;;;;;;;5006513;28;20044;-44
2022/10/19 03:33:21;;;;;;;35.10;17.50;;;;;;;;;;5005769;28;20025;-43
2022/10/19 03:35:47;;;;;;;31.05;17.55;;;;;;;;;;5008787;28;20033;-45
2022/10/19 03:38:12;;;;;;;36.00;17.67;;;;;;;;;;5007728;28;20044;-46
2022/10/19 03:40:38;;;;;;;37.38;18.55;;;;;;;;;;5007791;28;20145;-43
2022/10/19 03:43:03;;;;;;;33.95;17.92;;;;;;;;;;5007398;28;20092;-43
2022/10/19 03:45:29;;;;;;;25.23;17.73;;;;;;;;;;5008634;28;20050;-45
2022/10/19 03:47:54;;;;;;;30.10;17.60;;;;;;;;;;5007000;28;20034;-44
2022/10/19 03:50:20;;;;;;;24.42;16.10;;;;;;;;;;5007527;28;20042;-45
2022/10/19 03:52:48;;;;;;;19.88;15.23;;;;;;;;;;5008309;28;20032;-45
2022/10/19 03:55:13;;;;;;;16.25;13.73;;;;;;;;;;5006675;28;20045;-43
2022/10/19 03:57:38;;;;;;;18.42;13.85;;;;;;;;;;5007638;28;20038;-44
2022/10/19 04:00:04;;;;;;;19.88;14.40;;;;;;;;;;5007962;28;20388;-44
2022/10/19 04:02:30;;;;;;;20.90;14.40;;;;;;;;;;5007006;28;20053;-43
2022/10/19 04:04:55;;;;;;;21.05;13.35;;;;;;;;;;5004260;28;20490;-44
2022/10/19 04:07:20;;;;;;;23.27;14.43;;;;;;;;;;5007591;28;20026;-44
2022/10/19 04:09:46;;;;;;;20.05;13.85;;;;;;;;;;5006935;28;20042;-47
2022/10/19 04:12:11;;;;;;;18.55;13.43;;;;;;;;;;5006821;28;20109;-44
2022/10/19 04:14:37;;;;;;;17.10;12.93;;;;;;;;;;5008297;28;20037;-43
2022/10/19 04:17:03;;;;;;;14.95;11.98;;;;;;;;;;5008210;28;20053;-43
2022/10/19 04:19:28;;;;;;;18.52;12.15;;;;;;;;;;5004684;28;20532;-44
2022/10/19 04:21:54;;;;;;;14.45;11.07;;;;;;;;;;5003219;28;20073;-46
2022/10/19 04:24:20;;;;;;;15.77;11.55;;;;;;;;;;5004109;28;20517;-47
2022/10/19 04:26:55;;;;;;;13.60;9.98;;;;;;;;;;5008114;28;20108;-46
2022/10/19 04:29:23;;;;;;;13.05;9.57;;;;;;;;;;5008136;28;20034;-43
2022/10/19 04:31:50;;;;;;;11.23;10.05;;;;;;;;;;5006062;28;20018;-43
2022/10/19 04:34:16;;;;;;;16.13;10.23;;;;;;;;;;5005830;28;20044;-45
2022/10/19 04:36:41;;;;;;;13.07;10.48;;;;;;;;;;5005944;28;20022;-46
2022/10/19 04:39:07;;;;;;;12.93;10.95;;;;;;;;;;5003435;28;20491;-45
2022/10/19 04:41:33;;;;;;;16.95;11.55;;;;;;;;;;5006864;28;20494;-44
2022/10/19 04:44:01;;;;;;;15.82;12.27;;;;;;;;;;5003329;28;20073;-44
2022/10/19 04:46:27;;;;;;;16.42;12.43;;;;;;;;;;5004172;28;20104;-47
2022/10/19 04:48:54;;;;;;;15.60;12.07;;;;;;;;;;5001485;28;20091;-45
2022/10/19 04:51:21;;;;;;;17.77;11.98;;;;;;;;;;5005626;28;20053;-46
2022/10/19 04:53:47;;;;;;;17.50;13.02;;;;;;;;;;5005458;28;20050;-47
2022/10/19 04:56:18;;;;;;;19.33;14.30;;;;;;;;;;5006968;28;20037;-45
2022/10/19 04:58:44;;;;;;;17.40;13.07;;;;;;;;;;5003391;28;20125;-47
2022/10/19 05:01:13;;;;;;;20.58;14.02;;;;;;;;;;5006733;28;20113;-48
2022/10/19 05:03:39;;;;;;;20.73;12.45;;;;;;;;;;5005028;28;20026;-45
2022/10/19 05:06:06;;;;;;;16.35;12.30;;;;;;;;;;5005161;28;20048;-43
2022/10/19 05:08:31;;;;;;;17.67;13.38;;;;;;;;;;5003723;28;20034;-44
2022/10/19 05:11:01;;;;;;;18.13;12.57;;;;;;;;;;5005118;28;20088;-45
2022/10/19 05:13:26;;;;;;;21.83;13.05;;;;;;;;;;5005615;28;20022;-47
2022/10/19 05:15:56;;;;;;;14.85;11.90;;;;;;;;;;5008730;28;20022;-43
2022/10/19 05:18:22;;;;;;;18.38;12.80;;;;;;;;;;5007963;28;20058;-45
2022/10/19 05:20:47;;;;;;;16.80;12.70;;;;;;;;;;5005745;28;20045;-44
2022/10/19 05:23:13;;;;;;;17.48;12.02;;;;;;;;;;5007496;28;20056;-43
2022/10/19 05:25:38;;;;;;;19.13;11.90;;;;;;;;;;5008217;28;20049;-44
2022/10/19 05:28:03;;;;;;;19.63;11.73;;;;;;;;;;5008520;28;20029;-46
2022/10/19 05:30:29;;;;;;;14.00;11.50;;;;;;;;;;5007701;28;20363;-43
2022/10/19 05:32:54;;;;;;;13.05;10.93;;;;;;;;;;5005544;28;20029;-45
2022/10/19 05:35:20;;;;;;;14.23;11.98;;;;;;;;;;5006560;28;20041;-43
2022/10/19 05:37:46;;;;;;;12.25;10.93;;;;;;;;;;5009807;28;20061;-43
2022/10/19 05:40:11;;;;;;;12.23;10.38;;;;;;;;;;5006476;28;20850;-44
2022/10/19 05:42:36;;;;;;;14.15;11.10;;;;;;;;;;5004778;28;20088;-43
2022/10/19 05:45:02;;;;;;;13.68;11.05;;;;;;;;;;5006280;28;20045;-45
2022/10/19 05:47:27;;;;;;;14.15;10.18;;;;;;;;;;5003915;28;20045;-45
2022/10/19 05:49:52;;;;;;;13.20;10.32;;;;;;;;;;5007456;28;20034;-46
2022/10/19 05:52:18;;;;;;;13.18;10.82;;;;;;;;;;5009371;28;20026;-44
2022/10/19 05:54:43;;;;;;;15.25;11.40;;;;;;;;;;5006902;28;20034;-44
2022/10/19 05:57:09;;;;;;;13.52;11.40;;;;;;;;;;5009646;28;20087;-45
2022/10/19 05:59:34;;;;;;;13.43;10.77;;;;;;;;;;5003434;28;20058;-45
2022/10/19 06:01:59;;;;;;;15.50;11.05;;;;;;;;;;5003918;28;20034;-44
2022/10/19 06:04:25;;;;;;;14.60;11.10;;;;;;;;;;5009851;28;20737;-44
2022/10/19 06:06:50;;;;;;;15.15;11.07;;;;;;;;;;5008318;28;20025;-45
2022/10/19 06:09:16;;;;;;;16.85;11.80;;;;;;;;;;5005809;28;20065;-43
2022/10/19 06:11:41;;;;;;;15.75;12.15;;;;;;;;;;5009584;28;20026;-43
2022/10/19 06:14:12;;;;;;;14.25;11.20;;;;;;;;;;5010529;28;20038;-44
2022/10/19 06:16:37;;;;;;;18.55;12.80;;;;;;;;;;5006649;28;20034;-44
2022/10/19 06:19:04;;;;;;;13.80;11.85;;;;;;;;;;5010445;28;20056;-44
2022/10/19 06:21:31;;;;;;;20.45;13.48;;;;;;;;;;5010031;28;20049;-43
2022/10/19 06:24:02;;;;;;;19.67;12.60;;;;;;;;;;5008132;28;20049;-44
2022/10/19 06:26:29;;;;;;;16.92;13.07;;;;;;;;;;5009079;28;20034;-43
2022/10/19 06:28:58;;;;;;;21.88;13.60;;;;;;;;;;5009030;28;20061;-44
2022/10/19 06:31:24;;;;;;;20.90;13.15;;;;;;;;;;5010023;28;20061;-43
2022/10/19 06:33:49;;;;;;;21.45;12.38;;;;;;;;;;5008849;28;20103;-43
2022/10/19 06:36:21;;;;;;;23.42;14.05;;;;;;;;;;5009173;28;20026;-44
2022/10/19 06:38:47;;;;;;;21.13;14.40;;;;;;;;;;5007457;28;20049;-43
2022/10/19 06:41:13;;;;;;;21.13;13.90;;;;;;;;;;5005882;28;20026;-49
2022/10/19 06:43:39;;;;;;;21.17;14.75;;;;;;;;;;5007130;28;20729;-43
2022/10/19 06:46:06;;;;;;;21.40;14.85;;;;;;;;;;5006056;28;20037;-43
2022/10/19 06:48:32;;;;;;;22.20;15.38;;;;;;;;;;5009628;28;20475;-44
2022/10/19 06:50:59;;;;;;;26.27;16.52;;;;;;;;;;5007650;28;20048;-44
2022/10/19 06:53:25;;;;;;;23.80;15.98;;;;;;;;;;5005753;28;20041;-47
2022/10/19 06:55:51;;;;;;;24.88;16.90;;;;;;;;;;5007453;28;20057;-45
2022/10/19 06:58:17;;;;;;;30.75;15.98;;;;;;;;;;5008421;28;20064;-43
2022/10/19 07:00:42;;;;;;;28.08;15.90;;;;;;;;;;5007981;28;20045;-43
2022/10/19 07:03:07;;;;;;;28.05;16.92;;;;;;;;;;5008590;28;20040;-44
2022/10/19 07:05:33;;;;;;;27.33;14.95;;;;;;;;;;5007975;28;20505;-45
2022/10/19 07:07:58;;;;;;;42.85;17.80;;;;;;;;;;5005323;28;20025;-43
2022/10/19 07:10:24;;;;;;;36.83;16.38;;;;;;;;;;5008085;28;20045;-44
2022/10/19 07:12:49;;;;;;;26.55;16.33;;;;;;;;;;5007621;28;20040;-47
2022/10/19 07:15:14;;;;;;;23.50;16.17;;;;;;;;;;5002048;28;20074;-49
2022/10/19 07:17:40;;;;;;;22.45;15.48;;;;;;;;;;5008466;28;20022;-46
2022/10/19 07:20:05;;;;;;;22.30;16.10;;;;;;;;;;5008629;28;20042;-43
2022/10/19 07:22:31;;;;;;;27.50;14.93;;;;;;;;;;5007276;28;20033;-44
2022/10/19 07:24:57;;;;;;;20.55;15.15;;;;;;;;;;5008319;28;20045;-45
2022/10/19 07:27:23;;;;;;;22.40;15.20;;;;;;;;;;5007860;28;20032;-47
2022/10/19 07:29:48;;;;;;;21.88;14.57;;;;;;;;;;5001061;28;20045;-46
2022/10/19 07:32:13;;;;;;;22.40;14.43;;;;;;;;;;5009209;28;20482;-45
2022/10/19 07:34:39;;;;;;;23.23;14.40;;;;;;;;;;5008784;28;20048;-44
2022/10/19 07:37:04;;;;;;;17.95;13.75;;;;;;;;;;5006562;28;20042;-46
2022/10/19 07:39:30;;;;;;;23.67;14.35;;;;;;;;;;5007990;28;20042;-44
2022/10/19 07:41:55;;;;;;;23.33;14.07;;;;;;;;;;5006960;28;20050;-43
2022/10/19 07:44:20;;;;;;;23.42;13.93;;;;;;;;;;5006642;28;20037;-43
2022/10/19 07:46:46;;;;;;;26.27;14.60;;;;;;;;;;5003913;28;20029;-43
2022/10/19 07:49:15;;;;;;;19.23;13.45;;;;;;;;;;5008622;28;20065;-48
2022/10/19 07:51:41;;;;;;;18.50;13.23;;;;;;;;;;5008669;28;20034;-45
2022/10/19 07:54:06;;;;;;;25.30;12.43;;;;;;;;;;5006898;28;20044;-45
2022/10/19 07:56:32;;;;;;;15.27;9.43;;;;;;;;;;5009562;28;20647;-47
2022/10/19 07:58:59;;;;;;;17.67;8.15;;;;;;;;;;5007620;28;20402;-49
2022/10/19 08:01:30;;;;;;;11.77;7.95;;;;;;;;;;5009052;28;20459;-43
2022/10/19 08:03:58;;;;;;;9.07;8.00;;;;;;;;;;5007080;28;20061;-46
2022/10/19 08:06:24;;;;;;;13.05;8.23;;;;;;;;;;5003715;28;20026;-44
2022/10/19 08:08:50;;;;;;;17.80;7.70;;;;;;;;;;5007718;28;20042;-46
2022/10/19 08:11:15;;;;;;;9.43;7.07;;;;;;;;;;5005476;28;20029;-44
2022/10/19 08:13:41;;;;;;;8.57;6.75;;;;;;;;;;5008092;28;20053;-45
2022/10/19 08:16:31;;;;;;;7.38;6.43;;;;;;;;;;5007641;28;20076;-44
2022/10/19 08:19:03;;;;;;;12.70;7.88;;;;;;;;;;5005768;28;20046;-44
2022/10/19 08:21:29;;;;;;;14.15;6.93;;;;;;;;;;5002330;28;20033;-45
2022/10/19 08:23:55;;;;;;;7.53;6.03;;;;;;;;;;5008350;28;20095;-46
2022/10/19 08:26:21;;;;;;;7.03;6.13;;;;;;;;;;5008031;28;20029;-46
2022/10/19 08:28:46;;;;;;;15.10;7.50;;;;;;;;;;5006622;28;20042;-44
2022/10/19 08:31:18;;;;;;;11.02;6.00;;;;;;;;;;5008048;28;20101;-46
2022/10/19 08:33:44;;;;;;;14.55;6.15;;;;;;;;;;5007438;28;20072;-45
2022/10/19 08:36:12;;;;;;;13.07;6.85;;;;;;;;;;5007406;28;20120;-44
2022/10/19 08:38:38;;;;;;;14.35;7.30;;;;;;;;;;5002325;28;20398;-45
2022/10/19 08:41:17;;;;;;;14.45;6.75;;;;;;;;;;5005647;28;20034;-44
2022/10/19 08:44:06;;;;;;;14.20;6.03;;;;;;;;;;5007607;28;20061;-47
2022/10/19 08:46:40;;;;;;;12.30;5.60;;;;;;;;;;5007489;28;20026;-44
2022/10/19 08:49:11;;;;;;;13.70;6.38;;;;;;;;;;5009017;28;20133;-44
2022/10/19 08:51:39;;;;;;;12.35;6.68;;;;;;;;;;5011221;28;20028;-46
2022/10/19 08:54:11;;;;;;;10.82;6.38;;;;;;;;;;5007717;28;20038;-44
2022/10/19 08:56:46;;;;;;;11.63;5.13;;;;;;;;;;5009811;28;20089;-44
2022/10/19 08:59:27;;;;;;;9.20;6.18;;;;;;;;;;5010849;28;20053;-44
2022/10/19 09:01:55;;;;;;;11.93;6.40;;;;;;;;;;5009756;28;20148;-47
2022/10/19 09:04:29;;;;;;;16.83;7.07;;;;;;;;;;5009643;28;20069;-50
2022/10/19 09:07:22;;;;;;;10.43;6.38;;;;;;;;;;5009950;28;20501;-44
2022/10/19 09:09:58;;;;;;;9.30;5.75;;;;;;;;;;5010003;28;20074;-47
2022/10/19 09:12:47;;;;;;;13.32;5.80;;;;;;;;;;5006420;28;20038;-46
2022/10/19 09:15:39;;;;;;;11.30;5.57;;;;;;;;;;5011033;28;20042;-49
2022/10/19 09:18:18;;;;;;;7.97;5.18;;;;;;;;;;5000142;28;20045;-45
2022/10/19 09:20:46;;;;;;;7.70;5.40;;;;;;;;;;5007625;28;20038;-47
2022/10/19 09:23:26;;;;;;;8.07;5.75;;;;;;;;;;5007770;28;20083;-44
2022/10/19 09:25:52;;;;;;;8.32;5.82;;;;;;;;;;5005990;28;20050;-47
2022/10/19 09:28:21;;;;;;;14.02;5.28;;;;;;;;;;5011256;28;20041;-47
2022/10/19 09:30:50;;;;;;;15.82;5.60;;;;;;;;;;5007118;28;20049;-46
2022/10/19 09:33:34;;;;;;;15.93;5.85;;;;;;;;;;5010224;28;20034;-44
2022/10/19 09:36:03;;;;;;;8.27;5.45;;;;;;;;;;5010442;28;20054;-47
2022/10/19 09:38:30;;;;;;;9.80;5.47;;;;;;;;;;5010307;28;20069;-44
2022/10/19 09:40:57;;;;;;;13.88;5.90;;;;;;;;;;5009251;28;20037;-44
2022/10/19 09:43:25;;;;;;;28.80;7.85;;;;;;;;;;5008599;28;20046;-46
2022/10/19 09:45:57;;;;;;;26.02;7.20;;;;;;;;;;5008751;28;20030;-45
2022/10/19 09:48:28;;;;;;;17.60;8.27;;;;;;;;;;5009258;28;20064;-46
2022/10/19 09:50:57;;;;;;;20.95;8.38;;;;;;;;;;5025331;28;20367;-44
2022/10/19 09:53:25;;;;;;;20.10;9.05;;;;;;;;;;5010390;28;20474;-48
2022/10/19 09:55:57;;;;;;;18.70;7.43;;;;;;;;;;5009811;28;20054;-45
2022/10/19 09:58:26;;;;;;;16.13;7.68;;;;;;;;;;5008335;28;20030;-47
2022/10/19 10:00:56;;;;;;;19.83;7.07;;;;;;;;;;5009997;28;20060;-44
2022/10/19 10:03:21;;;;;;;17.02;7.03;;;;;;;;;;5008586;28;20042;-48
2022/10/19 10:05:48;;;;;;;18.77;6.45;;;;;;;;;;5009986;28;20040;-45
2022/10/19 10:08:17;;;;;;;12.27;6.05;;;;;;;;;;5010480;28;20059;-44
2022/10/19 10:10:45;;;;;;;11.77;5.55;;;;;;;;;;5007838;28;20044;-44
2022/10/19 10:13:19;;;;;;;13.80;5.68;;;;;;;;;;5010378;28;20032;-44
2022/10/19 10:15:53;;;;;;;12.40;5.90;;;;;;;;;;5007716;28;20042;-46
2022/10/19 10:18:18;;;;;;;13.35;5.72;;;;;;;;;;5008952;28;20386;-44
2022/10/19 10:21:19;;;;;;;9.75;5.15;;;;;;;;;;5010050;28;20042;-44
2022/10/19 10:24:04;;;;;;;15.07;6.25;;;;;;;;;;4944171;28;20759;-44
2022/10/19 10:26:31;;;;;;;11.63;6.03;;;;;;;;;;4947977;28;20508;-44
2022/10/19 10:28:57;;;;;;;16.20;6.63;;;;;;;;;;4948780;28;20083;-47
2022/10/19 10:31:28;;;;;;;11.55;5.68;;;;;;;;;;4946365;28;20027;-45
2022/10/19 10:34:00;;;;;;;14.73;6.35;;;;;;;;;;4948321;28;20046;-44
2022/10/19 10:36:27;;;;;;;13.32;7.22;;;;;;;;;;4949141;28;20034;-48
2022/10/19 10:39:03;;;;;;;13.50;6.03;;;;;;;;;;4948037;28;20054;-46
2022/10/19 10:41:36;;;;;;;14.60;5.93;;;;;;;;;;4946456;28;20044;-46
2022/10/19 10:44:07;;;;;;;11.95;5.78;;;;;;;;;;4935753;29;20043;-45
2022/10/19 10:46:42;;;;;;;11.13;5.50;;;;;;;;;;4938087;29;20030;-44
2022/10/19 10:49:18;;;;;;;12.27;6.13;;;;;;;;;;4937366;29;20046;-44
2022/10/19 10:51:49;;;;;;;19.63;8.50;;;;;;;;;;4937120;29;20038;-44
2022/10/19 10:54:18;;;;;;;26.85;7.68;;;;;;;;;;4936129;28;20381;-47
2022/10/19 10:57:12;;;;;;;14.85;5.35;;;;;;;;;;4937053;29;20062;-46
2022/10/19 10:59:44;;;;;;;17.30;5.88;;;;;;;;;;4939227;28;20098;-48
2022/10/19 11:02:45;;;;;;;18.27;5.57;;;;;;;;;;4977937;28;20822;-44
2022/10/19 11:05:21;;;;;;;13.68;5.63;;;;;;;;;;4977465;28;20046;-45
2022/10/19 11:07:53;;;;;;;12.75;4.50;;;;;;;;;;4976575;28;20038;-46
2022/10/19 11:10:29;;;;;;;8.95;4.82;;;;;;;;;;4979654;28;20066;-44
2022/10/19 11:13:07;;;;;;;15.40;5.10;;;;;;;;;;4977302;28;20100;-45
2022/10/19 11:15:51;;;;;;;11.23;4.60;;;;;;;;;;4979977;28;20518;-46
2022/10/19 11:18:24;;;;;;;15.65;4.93;;;;;;;;;;4974973;28;20035;-47
2022/10/19 11:21:11;;;;;;;12.98;4.05;;;;;;;;;;4952351;28;20078;-44
2022/10/19 11:23:40;;;;;;;16.75;3.88;;;;;;;;;;4954240;28;20027;-44
2022/10/19 11:26:23;;;;;;;12.65;4.35;;;;;;;;;;4958894;28;20038;-45
2022/10/19 11:29:14;;;;;;;25.05;5.95;;;;;;;;;;4954540;28;20043;-44
2022/10/19 11:31:54;;;;;;;20.50;4.05;;;;;;;;;;4957546;28;20899;-46
2022/10/19 11:34:30;;;;;;;18.23;5.05;;;;;;;;;;4957098;28;20055;-49
2022/10/19 11:37:09;;;;;;;16.08;4.68;;;;;;;;;;4955970;28;20109;-44
2022/10/19 11:40:08;;;;;;;22.48;6.30;;;;;;;;;;4957658;28;20047;-44
2022/10/19 11:42:43;;;;;;;20.25;5.28;;;;;;;;;;4969146;28;21554;-45
2022/10/19 11:45:45;;;;;;;16.20;4.60;;;;;;;;;;4984634;28;20042;-45
2022/10/19 11:48:47;;;;;;;27.05;4.78;;;;;;;;;;4989202;28;20030;-47
2022/10/19 11:51:25;;;;;;;20.98;4.07;;;;;;;;;;5006839;28;20136;-44
2022/10/19 11:54:09;;;;;;;18.80;4.85;;;;;;;;;;5006932;28;20061;-43
2022/10/19 11:57:06;;;;;;;17.83;4.72;;;;;;;;;;5007529;28;20038;-45
2022/10/19 11:59:43;;;;;;;21.27;4.45;;;;;;;;;;5007358;28;20038;-46
2022/10/19 12:02:36;;;;;;;23.67;4.95;;;;;;;;;;5020475;28;20552;-45
2022/10/19 12:05:14;;;;;;;24.63;6.35;;;;;;;;;;5007238;28;20037;-44
2022/10/19 12:08:06;;;;;;;23.60;5.10;;;;;;;;;;5003561;28;20050;-45
2022/10/19 12:10:37;;;;;;;28.40;5.85;;;;;;;;;;5005227;28;20490;-47
2022/10/19 12:13:06;;;;;;;23.55;4.18;;;;;;;;;;5000816;28;20025;-47
2022/10/19 12:15:40;;;;;;;29.15;4.80;;;;;;;;;;5007041;28;20120;-44
2022/10/19 12:18:37;;;;;;;25.42;5.60;;;;;;;;;;5007980;28;20038;-47
2022/10/19 12:21:10;;;;;;;17.88;4.85;;;;;;;;;;5007188;28;20437;-46
2022/10/19 12:23:42;;;;;;;16.73;4.15;;;;;;;;;;5011442;28;20080;-44
2022/10/19 12:26:13;;;;;;;26.85;4.55;;;;;;;;;;5010797;28;20026;-44
2022/10/19 12:28:42;;;;;;;21.08;4.95;;;;;;;;;;5008894;28;20042;-44
2022/10/19 12:31:09;;;;;;;24.25;5.75;;;;;;;;;;5011291;28;20060;-45
2022/10/19 12:33:39;;;;;;;23.85;5.20;;;;;;;;;;5011387;28;20575;-46
2022/10/19 12:36:36;;;;;;;19.98;4.68;;;;;;;;;;5012831;28;20083;-44
2022/10/19 12:39:22;;;;;;;21.75;4.90;;;;;;;;;;5007149;28;20046;-44
2022/10/19 12:42:02;;;;;;;23.75;5.28;;;;;;;;;;5009295;28;20403;-44
2022/10/19 12:44:46;;;;;;;20.58;4.78;;;;;;;;;;5010096;28;20038;-44
2022/10/19 12:47:19;;;;;;;15.38;4.40;;;;;;;;;;5009405;28;20026;-44
2022/10/19 12:49:45;;;;;;;15.25;4.30;;;;;;;;;;5008977;28;20108;-46
2022/10/19 12:52:12;;;;;;;23.55;4.97;;;;;;;;;;5011034;28;20105;-44
2022/10/19 12:54:41;;;;;;;17.65;4.50;;;;;;;;;;5010008;28;20033;-43
2022/10/19 12:57:24;;;;;;;24.08;5.70;;;;;;;;;;5012423;28;20121;-44
2022/10/19 13:00:03;;;;;;;22.25;5.32;;;;;;;;;;5007326;28;20038;-44
2022/10/19 13:02:32;;;;;;;21.70;4.78;;;;;;;;;;5008195;28;20030;-44
2022/10/19 13:04:58;;;;;;;23.65;5.13;;;;;;;;;;5009417;28;20040;-44
2022/10/19 13:07:26;;;;;;;17.55;5.38;;;;;;;;;;5009243;28;20104;-44
2022/10/19 13:10:00;;;;;;;20.20;4.55;;;;;;;;;;5010770;28;20439;-44
2022/10/19 13:12:39;;;;;;;22.55;4.40;;;;;;;;;;5010063;28;20026;-48
2022/10/19 13:15:05;;;;;;;33.88;4.90;;;;;;;;;;5009424;28;20526;-45
2022/10/19 13:17:33;;;;;;;16.15;4.65;;;;;;;;;;5011669;28;20037;-44
2022/10/19 13:20:13;;;;;;;15.50;4.95;;;;;;;;;;5007901;28;20181;-44
2022/10/19 13:22:57;;;;;;;21.23;4.85;;;;;;;;;;5010926;28;20109;-43
2022/10/19 13:25:30;;;;;;;15.85;5.07;;;;;;;;;;5009627;28;20038;-44
2022/10/19 13:28:25;;;;;;;19.48;5.88;;;;;;;;;;5008202;28;20061;-44
2022/10/19 13:30:50;;;;;;;17.42;4.85;;;;;;;;;;5004028;28;20049;-45
2022/10/19 13:33:24;;;;;;;26.40;4.88;;;;;;;;;;5009552;28;20497;-44
2022/10/19 13:35:59;;;;;;;19.10;4.70;;;;;;;;;;5008823;28;20095;-44
2022/10/19 13:38:46;;;;;;;27.35;5.13;;;;;;;;;;5008227;28;20464;-47
2022/10/19 13:41:15;;;;;;;19.92;5.22;;;;;;;;;;5010193;28;20033;-46
2022/10/19 13:44:12;;;;;;;34.45;5.18;;;;;;;;;;5009923;28;20050;-47
2022/10/19 13:46:51;;;;;;;25.58;5.18;;;;;;;;;;5008707;28;20045;-44
2022/10/19 13:49:16;;;;;;;18.60;4.28;;;;;;;;;;5010724;28;20046;-44
2022/10/19 13:52:09;;;;;;;23.67;4.57;;;;;;;;;;5008961;28;20036;-46
2022/10/19 13:55:16;;;;;;;23.80;4.78;;;;;;;;;;5007022;28;20049;-44
2022/10/19 13:58:06;;;;;;;24.95;5.10;;;;;;;;;;5010472;28;20407;-45
2022/10/19 14:00:31;;;;;;;20.85;5.53;;;;;;;;;;5007668;28;20503;-44
2022/10/19 14:03:11;;;;;;;19.98;5.53;;;;;;;;;;5007792;28;20034;-45
2022/10/19 14:05:56;;;;;;;14.52;4.57;;;;;;;;;;5006321;28;20394;-45
2022/10/19 14:08:37;;;;;;;26.67;6.20;;;;;;;;;;5009122;28;20041;-44
2022/10/19 14:11:25;;;;;;;18.77;5.65;;;;;;;;;;5005444;28;20030;-44
2022/10/19 14:14:10;;;;;;;20.02;5.20;;;;;;;;;;4997811;28;20034;-44
2022/10/19 14:16:57;;;;;;;20.20;6.13;;;;;;;;;;4999428;28;20099;-47
2022/10/19 14:19:42;;;;;;;23.00;5.57;;;;;;;;;;5008081;28;20038;-48
2022/10/19 14:22:37;;;;;;;24.92;6.18;;;;;;;;;;5005684;28;20026;-44
2022/10/19 14:25:26;;;;;;;21.90;4.85;;;;;;;;;;5000591;28;20148;-45
2022/10/19 14:28:05;;;;;;;19.70;5.10;;;;;;;;;;5007923;28;20057;-46
2022/10/19 14:30:33;;;;;;;19.13;5.10;;;;;;;;;;5008608;28;20100;-46
2022/10/19 14:33:06;;;;;;;21.63;5.88;;;;;;;;;;5010572;28;20489;-49
2022/10/19 14:35:40;;;;;;;22.70;5.38;;;;;;;;;;5004512;28;20112;-44
2022/10/19 14:38:07;;;;;;;23.83;5.47;;;;;;;;;;5006770;28;20046;-44
2022/10/19 14:40:41;;;;;;;20.95;4.95;;;;;;;;;;5006432;28;20045;-46
2022/10/19 14:43:33;;;;;;;19.15;5.57;;;;;;;;;;5029095;28;20391;-46
2022/10/19 14:46:15;;;;;;;20.02;5.03;;;;;;;;;;5006080;28;20038;-44
2022/10/19 14:48:46;;;;;;;21.60;5.50;;;;;;;;;;5008302;28;20576;-44